Time;durP1;ratioP1;P1;durP2;ratioP2;P2;SDS_P1;SDS_P2;PMS_P1;PMS_P2;Temp;Humidity;BMP_temperature;BMP_pressure;BME280_temperature;BME280_humidity;BME280_pressure;Samples;Min_cycle;Max_cycle;Signal;HPM_P1;HPM_P2
2023/02/21 02:16:10;;;;;;;2.97;1.23;;;;;;;3.89;100.00;100699.03;5055469;28;20447;-78
2023/02/21 02:18:44;;;;;;;2.77;1.57;;;;;;;3.89;100.00;100704.28;5041044;28;20503;-78
2023/02/21 02:21:10;;;;;;;0.40;0.40;;;;;;;3.86;100.00;100699.00;5042320;28;20491;-78
2023/02/21 02:23:43;;;;;;;0.80;0.80;;;;;;;4.15;100.00;100702.66;5055029;28;20956;-79
2023/02/21 02:26:09;;;;;;;1.03;1.00;;;;;;;4.27;100.00;100703.59;5053492;28;20447;-79
2023/02/21 02:29:01;;;;;;;0.80;0.80;;;;;;;4.32;100.00;100705.34;5037154;28;20474;-79
2023/02/21 02:31:59;;;;;;;2.07;1.97;;;;;;;4.18;100.00;100709.66;5037281;28;20474;-79
2023/02/21 02:35:03;;;;;;;0.53;0.50;;;;;;;4.22;100.00;100705.28;5037364;28;20434;-79
2023/02/21 02:37:35;;;;;;;0.30;0.20;;;;;;;4.19;100.00;100708.78;5036563;28;20962;-79
2023/02/21 02:40:14;;;;;;;0.97;0.97;;;;;;;4.18;100.00;100712.31;5036670;28;20995;-79
2023/02/21 02:43:19;;;;;;;1.37;1.27;;;;;;;4.31;100.00;100708.84;5036746;28;20498;-79
2023/02/21 02:45:52;;;;;;;1.27;1.17;;;;;;;4.25;100.00;100697.41;5036798;28;20431;-79
2023/02/21 02:48:23;;;;;;;1.03;0.57;;;;;;;4.05;100.00;100699.97;5054326;28;20463;-79
2023/02/21 02:50:51;;;;;;;1.13;1.07;;;;;;;3.90;100.00;100711.28;5036791;28;20485;-79
2023/02/21 02:53:25;;;;;;;1.47;1.00;;;;;;;4.24;100.00;100709.69;5036913;28;20442;-79
2023/02/21 02:55:55;;;;;;;0.83;0.60;;;;;;;4.45;100.00;100707.13;5054420;28;20438;-79
2023/02/21 02:58:25;;;;;;;1.63;1.53;;;;;;;4.59;100.00;100706.28;5036632;28;20532;-79
2023/02/21 03:01:13;;;;;;;5.50;2.60;;;;;;;4.40;100.00;100713.28;5036291;28;20502;-79
2023/02/21 03:04:11;;;;;;;4.00;0.40;;;;;;;4.26;100.00;100709.72;5036493;28;20465;-79
2023/02/21 03:07:00;;;;;;;1.57;1.47;;;;;;;4.21;100.00;100707.03;5048511;28;20451;-79
2023/02/21 03:09:44;;;;;;;0.60;0.60;;;;;;;3.99;100.00;100703.47;5041135;28;20497;-79
2023/02/21 03:12:45;;;;;;;0.80;0.50;;;;;;;3.94;100.00;100713.06;5030203;28;20443;-79
2023/02/21 03:15:39;;;;;;;0.90;0.90;;;;;;;3.88;100.00;100701.66;5019217;28;20469;-79
2023/02/21 03:18:21;;;;;;;1.63;1.57;;;;;;;3.84;100.00;100696.38;5036282;28;20455;-79
2023/02/21 03:20:54;;;;;;;1.47;1.37;;;;;;;3.80;100.00;100702.47;5036118;28;21047;-79
2023/02/21 03:23:23;;;;;;;2.27;1.00;;;;;;;3.81;100.00;100706.84;5036131;28;20505;-79
2023/02/21 03:25:51;;;;;;;0.50;0.50;;;;;;;3.78;100.00;100711.22;5036031;28;20457;-79
2023/02/21 03:28:19;;;;;;;0.70;0.70;;;;;;;3.51;100.00;100706.69;5036274;28;20493;-78
2023/02/21 03:30:49;;;;;;;1.23;0.73;;;;;;;3.62;100.00;100693.59;5035963;28;20465;-79
2023/02/21 03:33:15;;;;;;;3.70;0.60;;;;;;;3.61;100.00;100703.25;5036157;28;20808;-79
2023/02/21 03:35:42;;;;;;;0.93;0.87;;;;;;;3.46;100.00;100701.41;5035971;28;20478;-79
2023/02/21 03:38:09;;;;;;;0.63;0.63;;;;;;;3.51;100.00;100711.94;5053408;28;20481;-79
2023/02/21 03:40:36;;;;;;;0.70;0.40;;;;;;;3.59;100.00;100699.72;5036212;28;20535;-78
2023/02/21 03:43:07;;;;;;;0.50;0.40;;;;;;;3.47;100.00;100689.13;5053855;28;20486;-78
2023/02/21 03:45:35;;;;;;;27.27;0.73;;;;;;;3.42;100.00;100701.34;5053852;28;20469;-79
2023/02/21 03:48:02;;;;;;;2.13;0.53;;;;;;;3.37;100.00;100698.69;5036176;28;20467;-79
2023/02/21 03:50:28;;;;;;;1.60;1.50;;;;;;;3.36;100.00;100701.31;5036836;28;20447;-78
2023/02/21 03:52:55;;;;;;;0.83;0.70;;;;;;;3.42;100.00;100707.47;5036641;28;20970;-78
2023/02/21 03:55:22;;;;;;;1.73;0.70;;;;;;;3.24;100.00;100695.09;5036675;28;20451;-78
2023/02/21 03:57:48;;;;;;;1.00;0.97;;;;;;;3.23;100.00;100697.72;5037554;28;20447;-78
2023/02/21 04:00:16;;;;;;;1.17;1.10;;;;;;;3.02;100.00;100669.56;5036564;28;20497;-78
2023/02/21 04:02:43;;;;;;;0.50;0.30;;;;;;;2.88;100.00;100666.81;5036713;28;20478;-78
2023/02/21 04:05:10;;;;;;;1.80;1.07;;;;;;;3.20;100.00;100684.56;5036981;28;20451;-78
2023/02/21 04:07:38;;;;;;;1.63;1.53;;;;;;;2.95;100.00;100658.09;5054016;28;20454;-78
2023/02/21 04:10:05;;;;;;;0.60;0.60;;;;;;;2.94;100.00;100666.84;5036742;28;20979;-78
2023/02/21 04:12:32;;;;;;;1.33;0.77;;;;;;;3.05;100.00;100664.31;5053810;28;20438;-78
2023/02/21 04:14:58;;;;;;;3.90;0.80;;;;;;;2.95;100.00;100676.47;5036392;28;20439;-78
2023/02/21 04:17:25;;;;;;;12.83;3.03;;;;;;;2.92;100.00;100660.72;5036023;28;20490;-78
2023/02/21 04:19:52;;;;;;;0.60;0.60;;;;;;;3.01;100.00;100682.66;5035731;28;20498;-78
2023/02/21 04:22:19;;;;;;;1.17;1.07;;;;;;;2.91;100.00;100666.84;5054280;28;20938;-78
2023/02/21 04:24:47;;;;;;;0.40;0.30;;;;;;;2.89;100.00;100662.44;5036080;28;20461;-78
2023/02/21 04:27:14;;;;;;;0.47;0.40;;;;;;;2.69;100.00;100654.38;5036215;28;20454;-78
2023/02/21 04:29:41;;;;;;;0.73;0.73;;;;;;;2.88;100.00;100695.69;5364378;23;20508;-48
2023/02/21 04:32:09;;;;;;;0.90;0.90;;;;;;;2.89;100.00;100686.94;5072082;28;20458;-48
2023/02/21 04:34:36;;;;;;;0.60;0.60;;;;;;;2.91;100.00;100693.09;5072357;28;20464;-51
2023/02/21 04:37:02;;;;;;;0.60;0.60;;;;;;;2.87;100.00;100695.66;5072068;28;21012;-49
2023/02/21 04:39:28;;;;;;;2.87;0.83;;;;;;;2.85;100.00;100695.63;5072003;28;20466;-49
2023/02/21 04:41:55;;;;;;;1.00;0.80;;;;;;;2.91;100.00;100698.34;5071854;28;21012;-48
2023/02/21 04:44:22;;;;;;;1.10;1.10;;;;;;;2.90;100.00;100701.84;5093252;22;20496;-50
2023/02/21 04:46:48;;;;;;;0.80;0.70;;;;;;;2.91;100.00;100698.34;5112739;28;20447;-50
2023/02/21 04:49:14;;;;;;;1.83;1.17;;;;;;;2.89;100.00;100694.81;5112889;28;20564;-50
2023/02/21 04:51:41;;;;;;;7.83;0.80;;;;;;;2.72;100.00;100692.88;5112773;28;20444;-50
2023/02/21 04:54:07;;;;;;;4.73;1.50;;;;;;;2.77;100.00;100688.56;5112696;28;20491;-50
2023/02/21 04:56:34;;;;;;;4.83;1.57;;;;;;;2.71;100.00;100689.38;5112572;28;20451;-50
2023/02/21 04:59:00;;;;;;;1.17;1.07;;;;;;;2.82;100.00;100693.00;5113100;28;20473;-50
2023/02/21 05:01:29;;;;;;;2.33;1.67;;;;;;;2.73;100.00;100679.78;5112848;28;20444;-50
2023/02/21 05:03:57;;;;;;;0.30;0.30;;;;;;;2.62;100.00;100689.31;5112523;28;20527;-50
2023/02/21 05:06:26;;;;;;;1.47;1.10;;;;;;;2.78;100.00;100691.22;5112679;28;20484;-50
2023/02/21 05:08:52;;;;;;;2.57;1.73;;;;;;;2.69;100.00;100683.25;5112626;28;20457;-50
2023/02/21 05:11:19;;;;;;;3.43;1.80;;;;;;;2.76;100.00;100692.06;5112449;28;20940;-50
2023/02/21 05:13:47;;;;;;;1.63;1.53;;;;;;;2.65;100.00;100690.22;5112313;28;20470;-50
2023/02/21 05:16:13;;;;;;;0.40;0.40;;;;;;;2.65;100.00;100687.59;5112510;28;20451;-50
2023/02/21 05:18:41;;;;;;;1.03;0.77;;;;;;;2.61;100.00;100698.94;5112594;28;20448;-50
2023/02/21 05:21:08;;;;;;;1.20;1.00;;;;;;;2.61;100.00;100683.19;5112286;28;20459;-49
2023/02/21 05:23:35;;;;;;;2.23;1.00;;;;;;;2.55;100.00;100687.47;5112335;28;20494;-49
2023/02/21 05:26:06;;;;;;;0.87;0.87;;;;;;;2.58;100.00;100687.50;5112060;28;20464;-49
2023/02/21 05:28:33;;;;;;;1.17;1.13;;;;;;;2.50;100.00;100686.56;5112903;28;20456;-50
2023/02/21 05:30:59;;;;;;;4.00;1.13;;;;;;;2.53;100.00;100690.09;5114205;28;20814;-49
2023/02/21 05:33:38;;;;;;;0.70;0.70;;;;;;;2.49;100.00;100682.19;5116330;28;20436;-50
2023/02/21 05:36:05;;;;;;;0.87;0.87;;;;;;;2.48;100.00;100685.66;5115943;28;20555;-50
2023/02/21 05:38:32;;;;;;;1.33;1.10;;;;;;;2.44;100.00;100684.72;5115927;28;20866;-50
2023/02/21 05:40:58;;;;;;;3.17;1.20;;;;;;;2.50;100.00;100689.19;5116275;28;20452;-49
2023/02/21 05:43:25;;;;;;;0.63;0.63;;;;;;;2.42;100.00;100688.22;5115963;28;20492;-50
2023/02/21 05:45:54;;;;;;;0.80;0.80;;;;;;;2.39;100.00;100696.94;5115565;28;20479;-49
2023/02/21 05:48:22;;;;;;;0.33;0.33;;;;;;;2.36;100.00;100691.66;5115884;28;20999;-50
2023/02/21 05:50:48;;;;;;;0.87;0.87;;;;;;;2.35;100.00;100690.78;5115542;28;20905;-50
2023/02/21 05:53:15;;;;;;;1.80;1.50;;;;;;;2.41;100.00;100692.56;5115563;28;20447;-49
2023/02/21 05:55:41;;;;;;;4.33;2.27;;;;;;;2.47;100.00;100692.66;5115725;28;20830;-49
2023/02/21 05:58:08;;;;;;;0.60;0.60;;;;;;;2.42;100.00;100693.47;5115520;28;20970;-49
2023/02/21 06:00:34;;;;;;;0.60;0.60;;;;;;;2.42;100.00;100694.34;5102035;28;20456;-49
2023/02/21 06:03:00;;;;;;;0.47;0.47;;;;;;;2.40;100.00;100696.06;5115436;28;20491;-50
2023/02/21 06:05:30;;;;;;;2.13;1.40;;;;;;;2.46;100.00;100692.63;5115255;28;20554;-49
2023/02/21 06:07:58;;;;;;;2.73;0.70;;;;;;;2.57;100.00;100691.00;5115213;28;20452;-50
2023/02/21 06:10:24;;;;;;;1.87;1.77;;;;;;;2.49;100.00;100696.19;5115407;28;20790;-49
2023/02/21 06:12:51;;;;;;;3.23;0.90;;;;;;;2.34;100.00;100691.66;5115263;28;20445;-50
2023/02/21 06:15:17;;;;;;;2.10;1.10;;;;;;;2.27;100.00;100689.81;5115352;28;20464;-50
2023/02/21 06:17:44;;;;;;;0.50;0.50;;;;;;;2.27;100.00;100692.44;5114994;28;20936;-50
2023/02/21 06:20:13;;;;;;;1.47;1.37;;;;;;;2.24;100.00;100699.38;5115071;28;20958;-50
2023/02/21 06:22:40;;;;;;;2.40;0.70;;;;;;;2.34;100.00;100690.78;5114864;28;20488;-50
2023/02/21 06:25:07;;;;;;;5.23;1.23;;;;;;;2.54;100.00;100696.22;5114852;28;21003;-49
2023/02/21 06:27:33;;;;;;;2.00;1.90;;;;;;;2.46;100.00;100700.47;5115052;28;20455;-49
2023/02/21 06:29:59;;;;;;;2.97;1.13;;;;;;;2.45;100.00;100704.84;5114871;28;20534;-49
2023/02/21 06:32:26;;;;;;;2.73;1.67;;;;;;;2.34;100.00;100698.63;5111063;28;20457;-50
2023/02/21 06:34:53;;;;;;;1.77;1.67;;;;;;;2.42;100.00;100699.59;5113093;28;20510;-50
2023/02/21 06:37:19;;;;;;;2.50;2.30;;;;;;;2.37;100.00;100698.66;5114911;28;20452;-50
2023/02/21 06:39:46;;;;;;;23.43;3.00;;;;;;;2.38;100.00;100700.41;5115271;28;20444;-50
2023/02/21 06:42:13;;;;;;;1.53;1.37;;;;;;;2.38;100.00;100698.69;5114413;28;21016;-50
2023/02/21 06:44:44;;;;;;;0.60;0.50;;;;;;;2.44;100.00;100697.84;5114686;28;20488;-50
2023/02/21 06:47:11;;;;;;;1.70;1.57;;;;;;;2.31;100.00;100696.84;5114560;28;20826;-50
2023/02/21 06:49:37;;;;;;;0.60;0.40;;;;;;;2.35;100.00;100705.63;5114358;28;20505;-50
2023/02/21 06:52:04;;;;;;;0.60;0.60;;;;;;;2.41;100.00;100705.69;5114678;28;20455;-50
2023/02/21 06:54:31;;;;;;;26.97;1.90;;;;;;;2.43;100.00;100703.97;5114474;28;20472;-50
2023/02/21 06:56:59;;;;;;;2.50;1.23;;;;;;;2.49;100.00;100704.03;5114306;28;20444;-50
2023/02/21 06:59:28;;;;;;;1.07;1.07;;;;;;;2.55;100.00;100701.47;5114371;28;20452;-49
2023/02/21 07:01:55;;;;;;;0.97;0.97;;;;;;;2.62;100.00;100699.81;5114414;28;20458;-50
2023/02/21 07:04:24;;;;;;;2.00;1.90;;;;;;;2.60;100.00;100704.13;5114209;28;20871;-50
2023/02/21 07:06:51;;;;;;;1.90;1.80;;;;;;;2.77;100.00;100709.56;5114209;28;20503;-50
2023/02/21 07:09:18;;;;;;;0.70;0.70;;;;;;;2.83;100.00;100704.38;5114303;28;20444;-50
2023/02/21 07:11:45;;;;;;;0.40;0.40;;;;;;;2.95;100.00;100707.13;5114054;28;20448;-50
2023/02/21 07:14:12;;;;;;;0.67;0.67;;;;;;;3.00;100.00;100710.66;5113890;28;20555;-50
2023/02/21 07:16:39;;;;;;;2.13;1.17;;;;;;;3.06;100.00;100710.72;5113895;28;20539;-50
2023/02/21 07:19:05;;;;;;;1.03;0.77;;;;;;;3.24;100.00;100705.59;5113878;28;20853;-49
2023/02/21 07:21:32;;;;;;;6.03;0.83;;;;;;;3.30;100.00;100709.16;5113929;28;20440;-50
2023/02/21 07:23:58;;;;;;;0.87;0.80;;;;;;;3.41;100.00;100710.97;5113970;28;20488;-50
2023/02/21 07:26:25;;;;;;;1.40;1.30;;;;;;;3.52;100.00;100709.31;5113829;28;20440;-50
2023/02/21 07:28:51;;;;;;;2.70;2.50;;;;;;;3.73;100.00;100703.31;5113801;28;20448;-50
2023/02/21 07:31:19;;;;;;;2.43;2.33;;;;;;;3.90;100.00;100702.53;5113535;28;20464;-50
2023/02/21 07:33:46;;;;;;;2.87;2.67;;;;;;;4.03;100.00;100702.59;5113506;28;20971;-50
2023/02/21 07:36:12;;;;;;;3.57;1.83;;;;;;;4.03;100.00;100704.34;5113547;28;20948;-50
2023/02/21 07:38:39;;;;;;;3.87;2.70;;;;;;;4.04;100.00;100701.72;5113628;28;20444;-50
2023/02/21 07:41:05;;;;;;;2.63;2.53;;;;;;;4.21;100.00;100711.44;5100223;28;20449;-50
2023/02/21 07:43:32;;;;;;;3.93;2.57;;;;;;;4.31;100.00;100697.44;5113215;28;20483;-50
2023/02/21 07:45:59;;;;;;;4.60;4.13;;;;;;;4.40;100.00;100695.72;5113480;28;20511;-50
2023/02/21 07:48:26;;;;;;;2.90;2.40;;;;;;;4.46;100.00;100703.63;5113459;28;20454;-50
2023/02/21 07:50:52;;;;;;;3.50;3.20;;;;;;;4.57;100.00;100706.28;5113509;28;20491;-50
2023/02/21 07:53:19;;;;;;;21.03;3.93;;;;;;;4.89;100.00;100706.34;5113098;28;20563;-50
2023/02/21 07:55:45;;;;;;;3.43;2.27;;;;;;;4.83;100.00;100700.22;5113232;28;20468;-50
2023/02/21 07:58:12;;;;;;;3.13;2.70;;;;;;;4.97;100.00;100701.09;5113050;28;20908;-50
2023/02/21 08:00:38;;;;;;;2.67;2.47;;;;;;;5.08;100.00;100693.22;5114039;28;20482;-50
2023/02/21 08:03:06;;;;;;;3.90;3.60;;;;;;;5.26;100.00;100688.81;5113015;28;20562;-50
2023/02/21 08:05:32;;;;;;;6.93;2.40;;;;;;;5.37;100.00;100701.97;5113859;28;20547;-51
2023/02/21 08:07:59;;;;;;;2.93;2.73;;;;;;;5.51;100.00;100694.94;5112986;28;20455;-51
2023/02/21 08:10:26;;;;;;;4.10;2.77;;;;;;;5.58;100.00;100683.47;5112923;28;20448;-51
2023/02/21 08:12:53;;;;;;;3.97;3.40;;;;;;;5.80;100.00;100686.94;5112616;28;20531;-51
2023/02/21 08:15:19;;;;;;;5.00;2.70;;;;;;;5.98;100.00;100691.31;5112944;28;20468;-51
2023/02/21 08:17:50;;;;;;;2.73;2.17;;;;;;;6.21;100.00;100689.47;5113387;28;20524;-53
2023/02/21 08:20:18;;;;;;;3.33;3.13;;;;;;;6.38;100.00;100693.78;5113081;28;20539;-50
2023/02/21 08:22:48;;;;;;;7.50;3.50;;;;;;;6.53;100.00;100691.94;5112587;28;20512;-50
2023/02/21 08:25:15;;;;;;;3.53;3.10;;;;;;;6.67;100.00;100698.91;5112723;28;20986;-50
2023/02/21 08:27:43;;;;;;;6.57;4.97;;;;;;;6.82;100.00;100691.75;5112585;28;20450;-50
2023/02/21 08:30:13;;;;;;;2.10;1.90;;;;;;;6.97;100.00;100681.97;5113065;28;20505;-50
2023/02/21 08:32:40;;;;;;;4.87;3.40;;;;;;;7.27;100.00;100684.38;5112724;28;20476;-51
2023/02/21 08:35:07;;;;;;;7.60;4.03;;;;;;;7.25;100.00;100690.53;5112705;28;20552;-50
2023/02/21 08:37:36;;;;;;;13.30;3.30;;;;;;;7.28;100.00;100682.63;5094532;28;20448;-50
2023/02/21 08:40:03;;;;;;;3.40;1.90;;;;;;;7.48;100.00;100674.47;5112512;28;20455;-51
2023/02/21 08:42:29;;;;;;;2.83;2.73;;;;;;;7.66;100.00;100674.28;5112621;28;20493;-50
2023/02/21 08:44:56;;;;;;;3.20;2.90;;;;;;;7.80;100.00;100676.78;5112440;28;20496;-51
2023/02/21 08:47:23;;;;;;;6.53;2.97;;;;;;;7.78;100.00;100668.88;5112535;28;20455;-51
2023/02/21 08:49:49;;;;;;;7.23;2.87;;;;;;;7.90;100.00;100670.50;5112557;28;20885;-50
2023/02/21 08:52:17;;;;;;;6.90;4.30;;;;;;;7.95;100.00;100664.28;5112249;28;20444;-51
2023/02/21 08:54:44;;;;;;;6.10;4.33;;;;;;;8.06;100.00;100664.13;5112330;28;20995;-51
2023/02/21 08:57:11;;;;;;;5.73;5.23;;;;;;;8.06;100.00;100661.47;5112478;28;20539;-51
2023/02/21 08:59:43;;;;;;;5.90;4.87;;;;;;;8.09;100.00;100657.94;5112500;28;20455;-51
2023/02/21 09:02:24;;;;;;;3.10;2.90;;;;;;;8.18;100.00;100663.09;5112259;28;21011;-50
2023/02/21 09:04:51;;;;;;;4.13;3.50;;;;;;;8.24;100.00;100665.69;5112222;28;20873;-51
2023/02/21 09:07:20;;;;;;;9.90;5.53;;;;;;;8.32;100.00;100669.09;5116501;28;20914;-50
2023/02/21 09:09:47;;;;;;;4.00;3.63;;;;;;;8.53;99.58;100662.66;5116144;28;20990;-51
2023/02/21 09:12:13;;;;;;;5.27;3.80;;;;;;;8.82;99.75;100656.94;5116341;28;20447;-51
2023/02/21 09:14:41;;;;;;;8.43;4.87;;;;;;;8.74;99.50;100656.16;5115821;28;20460;-51
2023/02/21 09:17:11;;;;;;;6.63;3.90;;;;;;;8.75;98.97;100649.97;5116208;28;20444;-51
2023/02/21 09:19:38;;;;;;;4.63;4.30;;;;;;;8.88;99.28;100652.41;5115855;28;21341;-51
2023/02/21 09:22:08;;;;;;;5.93;5.47;;;;;;;9.26;98.14;100642.94;5116226;28;20450;-51
2023/02/21 09:24:36;;;;;;;12.00;4.97;;;;;;;9.14;97.66;100651.97;5115816;28;20484;-50
2023/02/21 09:27:03;;;;;;;4.60;4.07;;;;;;;9.34;97.39;100641.03;5115841;28;20952;-51
2023/02/21 09:29:33;;;;;;;2.83;2.73;;;;;;;9.43;97.02;100650.59;5115840;28;20451;-52
2023/02/21 09:32:11;;;;;;;4.03;3.73;;;;;;;9.63;96.85;100639.63;5115656;28;20534;-51
2023/02/21 09:34:38;;;;;;;6.60;5.93;;;;;;;9.82;95.94;100634.81;5102326;28;20980;-51
2023/02/21 09:37:05;;;;;;;5.80;5.30;;;;;;;9.87;95.87;100630.28;5101995;28;20445;-51
2023/02/21 09:39:31;;;;;;;9.10;4.80;;;;;;;9.84;95.54;100630.34;5115709;28;20451;-51
2023/02/21 09:41:58;;;;;;;23.03;5.80;;;;;;;10.14;94.97;100632.34;5115693;28;20531;-51
2023/02/21 09:44:27;;;;;;;3.53;3.23;;;;;;;10.27;94.47;100630.34;5115323;28;20494;-51
2023/02/21 09:46:58;;;;;;;10.63;5.23;;;;;;;10.09;93.79;100627.16;5115752;28;20467;-50
2023/02/21 09:49:29;;;;;;;3.00;2.80;;;;;;;10.09;94.73;100632.47;5115437;28;20448;-51
2023/02/21 09:51:58;;;;;;;12.10;4.13;;;;;;;10.20;93.64;100621.63;5115368;28;20490;-51
2023/02/21 09:54:31;;;;;;;4.23;3.83;;;;;;;10.39;93.53;100625.63;5115352;28;20533;-51
2023/02/21 09:57:00;;;;;;;3.83;3.63;;;;;;;10.58;92.32;100622.59;5115086;28;20901;-51
2023/02/21 09:59:27;;;;;;;8.87;5.17;;;;;;;10.55;92.25;100619.97;5115134;28;20444;-51
2023/02/21 10:02:09;;;;;;;9.80;6.23;;;;;;;10.67;92.25;100620.56;5115237;28;20466;-51
2023/02/21 10:04:57;;;;;;;4.60;4.30;;;;;;;10.86;91.82;100610.38;5115142;28;20495;-51
2023/02/21 10:07:42;;;;;;;5.87;5.37;;;;;;;10.82;92.68;100616.66;5104005;28;20451;-51
2023/02/21 10:10:43;;;;;;;7.60;5.23;;;;;;;10.91;92.76;100621.75;5115177;28;20532;-51
2023/02/21 10:13:10;;;;;;;6.47;6.00;;;;;;;11.14;91.30;100617.66;5114996;28;20535;-51
2023/02/21 10:15:44;;;;;;;10.03;6.10;;;;;;;11.17;91.08;100628.22;5114644;28;20541;-52
2023/02/21 10:18:47;;;;;;;4.73;4.30;;;;;;;11.46;89.98;100623.00;5096973;28;20555;-51
2023/02/21 10:21:22;;;;;;;6.17;5.20;;;;;;;11.34;88.99;100618.00;5115129;28;20477;-51
2023/02/21 10:23:50;;;;;;;9.50;5.53;;;;;;;11.16;90.03;100623.81;5114965;28;21024;-51
2023/02/21 10:26:23;;;;;;;7.13;4.83;;;;;;;11.33;89.92;100620.72;5114735;28;20987;-51
2023/02/21 10:28:51;;;;;;;7.43;5.57;;;;;;;11.37;89.27;100622.38;5114895;28;20513;-51
2023/02/21 10:31:32;;;;;;;6.20;5.60;;;;;;;11.53;88.66;100621.06;5114438;28;20824;-51
2023/02/21 10:33:59;;;;;;;9.10;6.40;;;;;;;11.63;88.58;100621.66;5096441;28;20444;-51
2023/02/21 10:36:26;;;;;;;4.73;4.40;;;;;;;11.63;88.37;100624.31;5114394;28;20452;-51
2023/02/21 10:38:58;;;;;;;4.20;3.80;;;;;;;11.62;89.06;100611.94;5114558;28;20520;-51
2023/02/21 10:41:29;;;;;;;5.33;4.97;;;;;;;11.96;88.34;100612.78;5114636;28;20493;-51
2023/02/21 10:44:07;;;;;;;4.00;3.70;;;;;;;12.00;87.72;100608.22;5114650;28;20479;-51
2023/02/21 10:46:46;;;;;;;10.43;5.27;;;;;;;12.07;87.33;100602.69;5114259;28;20462;-51
2023/02/21 10:49:28;;;;;;;7.17;5.70;;;;;;;12.12;86.55;100598.06;5114141;28;20509;-51
2023/02/21 10:52:16;;;;;;;7.80;4.23;;;;;;;12.40;85.45;100598.09;5114290;28;20440;-51
2023/02/21 10:54:59;;;;;;;9.20;4.50;;;;;;;12.37;85.77;100589.34;5114041;28;20976;-51
2023/02/21 10:57:26;;;;;;;6.37;4.83;;;;;;;12.39;86.25;100592.81;5095895;28;20448;-51
2023/02/21 10:59:53;;;;;;;4.80;4.37;;;;;;;12.43;85.97;100590.00;5114123;28;20505;-51
2023/02/21 11:02:33;;;;;;;4.10;3.80;;;;;;;12.69;85.47;100583.84;5114162;28;20448;-51
2023/02/21 11:05:34;;;;;;;4.90;4.50;;;;;;;12.79;83.97;100579.09;5113776;28;20483;-51
2023/02/21 11:08:05;;;;;;;5.93;4.73;;;;;;;12.82;83.00;100573.66;5059332;28;20964;-51
2023/02/21 11:10:40;;;;;;;4.70;4.40;;;;;;;12.88;83.57;100576.09;5113920;28;20509;-51
2023/02/21 11:13:15;;;;;;;11.97;7.00;;;;;;;13.07;82.65;100562.16;5113928;28;20447;-51
2023/02/21 11:15:45;;;;;;;5.20;3.03;;;;;;;13.21;82.60;100565.25;5113660;28;20471;-51
2023/02/21 11:18:11;;;;;;;5.20;4.10;;;;;;;13.17;81.99;100561.78;5113872;28;20452;-51
2023/02/21 11:20:38;;;;;;;4.63;4.20;;;;;;;13.20;81.31;100561.69;5113889;28;20451;-51
2023/02/21 11:23:18;;;;;;;5.63;5.13;;;;;;;13.41;81.29;100561.84;5113534;28;20952;-51
2023/02/21 11:25:45;;;;;;;5.90;4.27;;;;;;;13.47;81.32;100559.84;5113368;28;20468;-52
2023/02/21 11:28:15;;;;;;;5.70;4.03;;;;;;;13.67;80.54;100551.09;5099427;28;20444;-51
2023/02/21 11:30:50;;;;;;;4.00;3.67;;;;;;;13.85;79.93;100560.25;5113208;28;20986;-52
2023/02/21 11:33:21;;;;;;;6.83;6.23;;;;;;;13.51;81.77;100549.91;5101870;28;20469;-51
2023/02/21 11:35:53;;;;;;;8.23;4.77;;;;;;;13.54;82.00;100541.78;5113045;28;20835;-51
2023/02/21 11:38:40;;;;;;;7.27;3.23;;;;;;;13.62;83.06;100540.59;5113247;28;20452;-51
2023/02/21 11:41:22;;;;;;;8.00;4.73;;;;;;;13.71;82.76;100536.72;5113235;28;20445;-51
2023/02/21 11:43:51;;;;;;;4.37;4.00;;;;;;;13.73;82.90;100532.19;5113317;28;20510;-51
2023/02/21 11:46:43;;;;;;;11.00;5.00;;;;;;;13.74;82.56;100530.38;5113236;28;20455;-51
2023/02/21 11:49:13;;;;;;;5.20;4.23;;;;;;;13.80;82.58;100527.47;5113349;28;20436;-50
2023/02/21 11:51:50;;;;;;;5.03;4.07;;;;;;;13.87;82.24;100521.84;5113143;28;20547;-51
2023/02/21 11:54:18;;;;;;;4.10;3.70;;;;;;;13.87;82.25;100524.50;5101352;28;20467;-50
2023/02/21 11:57:17;;;;;;;3.00;2.80;;;;;;;14.13;81.35;100512.81;5113127;28;20972;-51
2023/02/21 11:59:59;;;;;;;11.77;3.90;;;;;;;14.13;80.45;100511.94;5104781;28;20456;-51
2023/02/21 12:02:38;;;;;;;8.87;5.73;;;;;;;14.53;79.98;100503.22;5113114;28;20444;-51
2023/02/21 12:05:43;;;;;;;3.67;3.47;;;;;;;14.45;79.42;100511.53;5113036;28;20988;-51
2023/02/21 12:08:36;;;;;;;3.70;3.40;;;;;;;14.39;80.33;100503.75;5112751;28;20526;-50
2023/02/21 12:11:14;;;;;;;8.70;4.40;;;;;;;14.17;81.07;100497.50;5113078;28;20448;-50
2023/02/21 12:14:26;;;;;;;8.10;5.23;;;;;;;14.11;81.72;100498.59;5112902;28;20452;-51
2023/02/21 12:17:03;;;;;;;2.37;2.17;;;;;;;14.38;82.04;100487.72;5109004;28;20467;-51
2023/02/21 12:19:42;;;;;;;4.60;4.30;;;;;;;14.26;81.65;100491.81;5112812;28;20531;-50
2023/02/21 12:22:27;;;;;;;4.30;4.00;;;;;;;14.34;80.90;100481.66;5112693;28;20897;-51
2023/02/21 12:25:16;;;;;;;5.80;3.53;;;;;;;14.48;81.55;100481.97;5112474;28;20488;-50
2023/02/21 12:27:54;;;;;;;7.30;4.47;;;;;;;14.52;81.10;100472.00;5112754;28;20543;-51
2023/02/21 12:30:58;;;;;;;6.43;3.10;;;;;;;14.72;80.24;100472.06;5112903;28;20456;-51
2023/02/21 12:33:35;;;;;;;4.93;4.20;;;;;;;14.61;80.39;100471.63;5099235;28;20543;-51
2023/02/21 12:36:29;;;;;;;5.87;4.90;;;;;;;14.62;81.17;100465.34;5110936;28;20478;-51
2023/02/21 12:39:22;;;;;;;24.77;4.63;;;;;;;14.72;80.90;100455.13;5112877;28;20440;-51
2023/02/21 12:41:59;;;;;;;7.20;3.50;;;;;;;14.58;80.69;100454.84;5116554;28;20834;-51
2023/02/21 12:44:40;;;;;;;4.13;3.27;;;;;;;14.86;81.22;100451.84;5116211;28;20491;-51
2023/02/21 12:47:59;;;;;;;6.20;4.90;;;;;;;14.89;80.81;100449.03;5116255;28;20936;-51
2023/02/21 12:50:34;;;;;;;8.20;4.10;;;;;;;14.88;81.46;100440.16;5074663;28;20443;-51
2023/02/21 12:53:18;;;;;;;6.67;6.07;;;;;;;14.77;81.45;100435.25;5116633;28;20823;-50
2023/02/21 12:55:50;;;;;;;6.37;4.40;;;;;;;15.06;80.59;100431.28;5116528;28;20460;-51
2023/02/21 12:58:19;;;;;;;7.20;3.37;;;;;;;15.16;80.06;100430.88;5116244;28;20439;-50
2023/02/21 13:00:53;;;;;;;10.37;6.40;;;;;;;15.24;79.63;100426.94;5116537;28;20519;-51
2023/02/21 13:03:49;;;;;;;4.60;4.20;;;;;;;15.36;80.04;100420.16;5116368;28;20447;-51
2023/02/21 13:06:24;;;;;;;8.00;4.20;;;;;;;15.38;78.33;100407.53;5105376;28;20943;-51
2023/02/21 13:09:19;;;;;;;5.60;4.77;;;;;;;15.06;78.54;100417.91;5116242;28;20447;-51
2023/02/21 13:12:16;;;;;;;4.30;3.60;;;;;;;15.35;78.65;100413.03;5116672;28;20851;-51
2023/02/21 13:15:01;;;;;;;7.10;5.97;;;;;;;15.11;78.96;100410.56;5116007;28;20976;-51
2023/02/21 13:17:28;;;;;;;6.50;5.13;;;;;;;15.11;78.88;100407.88;5116391;28;20806;-50
2023/02/21 13:20:06;;;;;;;6.30;5.90;;;;;;;15.33;79.37;100390.81;5098116;28;20505;-51
2023/02/21 13:26:07;;;;;;;6.97;4.87;;;;;;;15.56;77.15;100384.38;5115835;28;20496;-51
2023/02/21 13:28:37;;;;;;;4.17;3.70;;;;;;;15.48;77.28;100382.03;5116210;28;20825;-51
2023/02/21 13:31:09;;;;;;;10.40;5.17;;;;;;;15.45;77.83;100379.50;5115944;28;20454;-51
2023/02/21 13:33:43;;;;;;;8.13;5.77;;;;;;;15.39;77.78;100378.00;5115820;28;20444;-51
2023/02/21 13:36:24;;;;;;;4.80;3.87;;;;;;;15.49;77.50;100373.09;5115925;28;20444;-51
2023/02/21 13:39:10;;;;;;;9.50;6.00;;;;;;;15.66;77.56;100359.78;5115831;28;20439;-50
2023/02/21 13:41:44;;;;;;;9.60;5.10;;;;;;;15.71;77.10;100359.56;5115829;28;20499;-51
2023/02/21 13:44:32;;;;;;;4.30;4.00;;;;;;;15.73;77.40;100354.97;5115259;28;20506;-51
2023/02/21 13:47:02;;;;;;;4.53;4.03;;;;;;;15.67;76.82;100350.78;5115848;28;20470;-51
2023/02/21 13:49:49;;;;;;;4.37;4.10;;;;;;;15.60;76.15;100343.97;5115730;28;21047;-51
2023/02/21 13:52:18;;;;;;;14.43;5.37;;;;;;;15.53;76.05;100350.56;5114614;28;20414;-51
2023/02/21 13:55:19;;;;;;;8.73;4.93;;;;;;;15.69;75.97;100345.34;5115547;28;20460;-52
2023/02/21 13:57:56;;;;;;;6.43;4.87;;;;;;;15.76;76.16;100343.22;5105334;28;20540;-51
2023/02/21 14:00:22;;;;;;;9.10;5.20;;;;;;;15.78;75.44;100341.38;5115330;28;20444;-51
2023/02/21 14:03:01;;;;;;;11.93;4.47;;;;;;;15.79;75.45;100337.75;5115198;28;20448;-51
2023/02/21 14:05:51;;;;;;;3.70;3.40;;;;;;;15.78;75.88;100333.34;5115336;28;20507;-57
2023/02/21 14:08:39;;;;;;;6.03;4.63;;;;;;;15.87;74.43;100336.41;5068164;28;20478;-51